Long Green, Maryland
Current Conditions -  °F | °C
As of 8:45 AM on Thursday 18 Dec 2014 (Local Time) from KMTN Reporting Station
Scattered Clouds Scattered Clouds  
Wind Chill: 29°   Ceiling: Unl
Heat Index: 36°   Visibility: 10mi
Dew Point: 21°   Wind: 9mph
Humidity: 56%   Direction: 280°W
Pressure: 30.16"   Gusts: 17mph
Location:  39.47°N, 76.52°W
Report Text: KMTN 181345Z 28008G15KT 10SM SCT045 02/M06 A3016
Loading
Personal Weather Stations






























Interactive Weather Map New forecast layout! Learn more

10-Day Weather Forecast

Advertisements
Track Severe Weather on mobile